createdAt,value
2023-02-26T18:00:53.314Z,40.06
2023-02-26T18:03:21.021Z,39.29
2023-02-26T18:05:49.357Z,38.93
2023-02-26T18:08:22.303Z,38.84
2023-02-26T18:10:49.651Z,38.69
2023-02-26T18:13:16.688Z,39.19
2023-02-26T18:15:43.968Z,39.42
2023-02-26T18:18:15.237Z,39.69
2023-02-26T18:20:42.798Z,38.68
2023-02-26T18:23:13.917Z,38.35
2023-02-26T18:25:41.722Z,38.36
2023-02-26T18:28:15.957Z,38.43
2023-02-26T18:30:44.413Z,38.47
2023-02-26T18:33:12.992Z,38.34
2023-02-26T18:35:45.998Z,38.05
2023-02-26T18:38:20.767Z,38.03
2023-02-26T18:40:49.095Z,37.84
2023-02-26T18:43:16.306Z,37.81
2023-02-26T18:45:46.201Z,38.03
2023-02-26T18:48:18.528Z,37.85
2023-02-26T18:50:47.052Z,38.19
2023-02-26T18:53:17.209Z,38.45
2023-02-26T18:55:44.902Z,37.87
2023-02-26T18:58:12.122Z,37.86
2023-02-26T19:00:39.089Z,37.81
2023-02-26T19:03:06.150Z,38.23
2023-02-26T19:05:33.074Z,38.11
2023-02-26T19:08:01.211Z,38.65
2023-02-26T19:10:31.976Z,38.05
2023-02-26T19:12:59.046Z,38.22
2023-02-26T19:15:27.296Z,37.96
2023-02-26T19:17:54.502Z,37.67
2023-02-26T19:20:21.507Z,37.84
2023-02-26T19:22:48.865Z,37.68
2023-02-26T19:25:17.117Z,38.40
2023-02-26T19:27:43.945Z,38.86
2023-02-26T19:30:11.427Z,38.19
2023-02-26T19:32:38.594Z,38.03
2023-02-26T19:35:07.338Z,38.24
2023-02-26T19:37:34.522Z,38.29
2023-02-26T19:40:01.466Z,38.08
2023-02-26T19:42:28.637Z,37.81
2023-02-26T19:44:55.689Z,37.82
2023-02-26T19:47:23.687Z,37.94
2023-02-26T19:49:50.691Z,38.20
2023-02-26T19:52:17.873Z,38.19
2023-02-26T19:54:44.911Z,38.20
2023-02-26T19:57:11.951Z,37.98
2023-02-26T19:59:38.999Z,37.94
2023-02-26T20:02:06.236Z,37.21
2023-02-26T20:04:33.790Z,37.44
2023-02-26T20:07:00.946Z,37.21
2023-02-26T20:09:28.291Z,37.59
2023-02-26T20:11:55.550Z,37.12
2023-02-26T20:14:22.527Z,36.83
2023-02-26T20:16:49.499Z,36.31
2023-02-26T20:19:16.662Z,36.45
2023-02-26T20:21:44.119Z,37.00
2023-02-26T20:24:11.406Z,37.29
2023-02-26T20:26:38.819Z,36.88
2023-02-26T20:29:05.780Z,36.57
2023-02-26T20:31:32.897Z,36.12
2023-02-26T20:34:00.042Z,36.46
2023-02-26T20:36:27.141Z,36.04
2023-02-26T20:38:54.151Z,36.22
2023-02-26T20:41:21.131Z,36.41
2023-02-26T20:43:48.198Z,36.55
2023-02-26T20:46:15.360Z,36.37
2023-02-26T20:48:44.276Z,35.97
2023-02-26T20:51:12.410Z,36.23
2023-02-26T20:53:40.216Z,36.42
2023-02-26T20:56:07.651Z,36.25
2023-02-26T20:58:34.785Z,36.09
2023-02-26T21:01:01.784Z,35.59
2023-02-26T21:03:28.751Z,35.87
2023-02-26T21:05:56.325Z,36.01
2023-02-26T21:08:23.690Z,35.37
2023-02-26T21:10:51.896Z,35.56
2023-02-26T21:13:19.438Z,36.03
2023-02-26T21:15:46.666Z,35.68
2023-02-26T21:18:13.673Z,35.46
2023-02-26T21:20:40.780Z,35.71
2023-02-26T21:23:07.720Z,35.62
2023-02-26T21:25:34.897Z,35.62
2023-02-26T21:28:02.210Z,35.45
2023-02-26T21:30:29.210Z,35.30
2023-02-26T21:32:56.419Z,35.41
2023-02-26T21:35:23.550Z,35.99
2023-02-26T21:37:50.497Z,36.06
2023-02-26T21:40:17.868Z,36.08
2023-02-26T21:42:44.869Z,36.45
2023-02-26T21:45:12.537Z,36.80
2023-02-26T21:47:39.539Z,36.43
2023-02-26T21:50:07.437Z,36.72
2023-02-26T21:52:34.736Z,36.17
2023-02-26T21:55:01.787Z,36.74
2023-02-26T21:57:30.167Z,36.60
2023-02-26T21:59:57.247Z,36.84
2023-02-26T22:02:24.446Z,36.83
2023-02-26T22:04:51.498Z,36.66
2023-02-26T22:07:18.476Z,36.69
2023-02-26T22:09:47.313Z,37.16
2023-02-26T22:12:15.086Z,37.05
2023-02-26T22:14:42.021Z,36.85
2023-02-26T22:17:09.080Z,36.52
2023-02-26T22:19:36.139Z,36.64
2023-02-26T22:22:03.153Z,36.39
2023-02-26T22:24:30.145Z,36.91
2023-02-26T22:26:57.414Z,36.75
2023-02-26T22:29:24.491Z,37.16
2023-02-26T22:31:52.114Z,37.32
2023-02-26T22:34:19.088Z,36.75
2023-02-26T22:36:46.326Z,36.74
2023-02-26T22:39:14.008Z,36.77
2023-02-26T22:41:40.949Z,37.11
2023-02-26T22:44:07.891Z,37.28
2023-02-26T22:46:34.972Z,37.04
2023-02-26T22:49:01.855Z,37.47
2023-02-26T22:51:30.097Z,37.63
2023-02-26T22:53:57.010Z,37.21
2023-02-26T22:56:24.282Z,37.20
2023-02-26T22:58:51.543Z,37.24
2023-02-26T23:01:19.396Z,37.08
2023-02-26T23:03:46.811Z,37.36
2023-02-26T23:06:14.575Z,37.50
2023-02-26T23:08:41.602Z,37.54
2023-02-26T23:11:08.849Z,37.58
2023-02-26T23:13:36.504Z,36.99
2023-02-26T23:16:06.046Z,37.15
2023-02-26T23:18:34.308Z,37.79
2023-02-26T23:21:01.065Z,37.73
2023-02-26T23:23:28.173Z,37.49
2023-02-26T23:25:55.454Z,37.34
2023-02-26T23:28:25.176Z,37.62
2023-02-26T23:30:52.486Z,37.65
2023-02-26T23:33:19.504Z,37.48
2023-02-26T23:35:46.496Z,37.68
2023-02-26T23:38:13.566Z,38.25
2023-02-26T23:40:40.500Z,38.14
2023-02-26T23:43:07.479Z,38.01
2023-02-26T23:45:34.541Z,38.01
2023-02-26T23:48:01.454Z,38.04
2023-02-26T23:50:28.393Z,38.04
2023-02-26T23:52:55.486Z,38.38
2023-02-26T23:55:22.502Z,38.29
2023-02-26T23:57:49.529Z,38.23
